Time;durP1;ratioP1;P1;durP2;ratioP2;P2;SDS_P1;SDS_P2;PMS_P1;PMS_P2;Temp;Humidity;BMP_temperature;BMP_pressure;BME280_temperature;BME280_humidity;BME280_pressure;Samples;Min_cycle;Max_cycle;Signal;HPM_P1;HPM_P2
2024/01/09 00:01:31;;;;;;;;;26.75;23.00;;;;;;;;5021582;28;28477;-78
2024/01/09 00:03:57;;;;;;;;;30.75;25.50;;;;;;;;5027509;28;30763;-77
2024/01/09 00:06:22;;;;;;;;;20.50;18.25;;;;;;;;5029141;28;28464;-77
2024/01/09 00:08:47;;;;;;;;;18.25;18.25;;;;;;;;5025972;28;28525;-77
2024/01/09 00:11:13;;;;;;;;;28.50;22.75;;;;;;;;5025617;28;28996;-78
2024/01/09 00:13:39;;;;;;;;;23.00;21.50;;;;;;;;5036394;28;28946;-78
2024/01/09 00:16:04;;;;;;;;;28.00;25.25;;;;;;;;5031746;28;28822;-79
2024/01/09 00:18:29;;;;;;;;;29.50;21.00;;;;;;;;5029480;28;28827;-78
2024/01/09 00:20:55;;;;;;;;;24.00;18.00;;;;;;;;5038582;28;30460;-78
2024/01/09 00:23:20;;;;;;;;;22.50;18.50;;;;;;;;5024274;28;29667;-76
2024/01/09 00:25:45;;;;;;;;;24.50;21.50;;;;;;;;5027271;28;28903;-77
2024/01/09 00:28:10;;;;;;;;;27.25;22.00;;;;;;;;5024312;28;28509;-77
2024/01/09 00:30:36;;;;;;;;;22.75;22.75;;;;;;;;5028491;28;28821;-76
2024/01/09 00:33:01;;;;;;;;;23.75;18.75;;;;;;;;5022553;28;28801;-78
2024/01/09 00:35:26;;;;;;;;;22.25;18.00;;;;;;;;5022454;28;28611;-79
2024/01/09 00:37:51;;;;;;;;;21.00;16.00;;;;;;;;5029352;28;28635;-78
2024/01/09 00:40:17;;;;;;;;;18.00;16.75;;;;;;;;5023490;28;29451;-78
2024/01/09 00:42:42;;;;;;;;;22.50;19.00;;;;;;;;5021237;28;28459;-79
2024/01/09 00:45:08;;;;;;;;;17.50;13.00;;;;;;;;5020652;28;28572;-78
2024/01/09 00:47:33;;;;;;;;;15.50;11.50;;;;;;;;5026020;28;28533;-78
2024/01/09 00:49:58;;;;;;;;;15.50;14.00;;;;;;;;5028495;28;28979;-78
2024/01/09 00:52:24;;;;;;;;;14.00;12.75;;;;;;;;5029489;28;30694;-78
2024/01/09 00:54:49;;;;;;;;;24.75;16.25;;;;;;;;5027564;28;28730;-78
2024/01/09 00:57:14;;;;;;;;;16.50;13.00;;;;;;;;5040180;28;28893;-79
2024/01/09 00:59:40;;;;;;;;;18.00;16.50;;;;;;;;5020307;28;28567;-77
2024/01/09 01:02:05;;;;;;;;;13.25;13.00;;;;;;;;5020149;28;28983;-78
2024/01/09 01:04:30;;;;;;;;;17.00;14.50;;;;;;;;5019961;28;28387;-78
2024/01/09 01:06:55;;;;;;;;;22.50;18.50;;;;;;;;5026003;28;29359;-76
2024/01/09 01:09:20;;;;;;;;;18.50;15.25;;;;;;;;5032308;28;29462;-77
2024/01/09 01:11:46;;;;;;;;;16.25;14.25;;;;;;;;5021983;28;28477;-76
2024/01/09 01:14:11;;;;;;;;;22.50;17.75;;;;;;;;5022122;28;28374;-79
2024/01/09 01:16:36;;;;;;;;;16.50;13.00;;;;;;;;5027101;28;28699;-77
2024/01/09 01:19:02;;;;;;;;;21.00;16.00;;;;;;;;5023175;28;28882;-76
2024/01/09 01:21:27;;;;;;;;;19.75;16.75;;;;;;;;5021704;28;28430;-78
2024/01/09 01:23:52;;;;;;;;;17.75;16.25;;;;;;;;5025883;28;28449;-79
2024/01/09 01:26:17;;;;;;;;;17.25;16.25;;;;;;;;5037342;28;28449;-76
2024/01/09 01:28:43;;;;;;;;;12.00;7.75;;;;;;;;5029020;28;28793;-80
2024/01/09 01:31:08;;;;;;;;;21.00;15.75;;;;;;;;5006493;28;29725;-77
2024/01/09 01:33:33;;;;;;;;;19.00;11.75;;;;;;;;5024027;28;28450;-77
2024/01/09 01:35:59;;;;;;;;;21.75;12.00;;;;;;;;5027586;28;28785;-78
2024/01/09 01:38:25;;;;;;;;;18.25;15.50;;;;;;;;5027113;28;28784;-77
2024/01/09 01:40:50;;;;;;;;;15.00;15.00;;;;;;;;5029005;28;28883;-78
2024/01/09 01:43:16;;;;;;;;;18.00;15.00;;;;;;;;5023225;28;29002;-78
2024/01/09 01:45:41;;;;;;;;;20.00;16.00;;;;;;;;5021485;28;28603;-77
2024/01/09 01:48:06;;;;;;;;;22.50;17.00;;;;;;;;5027113;28;28962;-78
2024/01/09 01:50:32;;;;;;;;;18.25;14.25;;;;;;;;5021894;28;28558;-77
2024/01/09 01:52:59;;;;;;;;;20.00;16.25;;;;;;;;5023389;28;28580;-77
2024/01/09 01:55:25;;;;;;;;;16.75;15.00;;;;;;;;5026242;28;28562;-78
2024/01/09 01:57:51;;;;;;;;;12.50;12.50;;;;;;;;5026302;28;28714;-78
2024/01/09 02:00:17;;;;;;;;;19.50;16.50;;;;;;;;5031947;28;29490;-78
2024/01/09 02:02:44;;;;;;;;;22.50;16.25;;;;;;;;5023478;28;28818;-77
2024/01/09 02:05:10;;;;;;;;;19.50;17.25;;;;;;;;5019186;28;28640;-77
2024/01/09 02:07:36;;;;;;;;;16.25;12.50;;;;;;;;5023882;28;29051;-78
2024/01/09 02:10:03;;;;;;;;;18.75;15.50;;;;;;;;5023827;28;28568;-78
2024/01/09 02:12:28;;;;;;;;;15.25;12.00;;;;;;;;5026251;28;28461;-78
2024/01/09 02:14:53;;;;;;;;;12.75;12.50;;;;;;;;5019295;28;28517;-77
2024/01/09 02:17:19;;;;;;;;;22.50;15.00;;;;;;;;5023891;28;28941;-77
2024/01/09 02:19:44;;;;;;;;;17.25;13.75;;;;;;;;5020508;28;30086;-77
2024/01/09 02:22:09;;;;;;;;;21.00;15.25;;;;;;;;5024108;28;28795;-77
2024/01/09 02:24:34;;;;;;;;;25.25;16.00;;;;;;;;5020678;28;28484;-79
2024/01/09 02:27:20;;;;;;;;;17.25;15.00;;;;;;;;5023720;28;28545;-77
2024/01/09 02:29:49;;;;;;;;;18.75;13.75;;;;;;;;5020077;28;28644;-77
2024/01/09 02:32:15;;;;;;;;;15.25;13.00;;;;;;;;5007191;28;28627;-78
2024/01/09 02:34:41;;;;;;;;;13.75;13.75;;;;;;;;5025990;28;28607;-79
2024/01/09 02:37:06;;;;;;;;;18.75;15.00;;;;;;;;5030238;28;28557;-78
2024/01/09 02:39:31;;;;;;;;;21.50;15.50;;;;;;;;5034605;28;28507;-78
2024/01/09 02:41:57;;;;;;;;;17.75;15.75;;;;;;;;5019514;28;28701;-78
2024/01/09 02:44:22;;;;;;;;;17.00;11.25;;;;;;;;5017702;28;28488;-77
2024/01/09 02:46:50;;;;;;;;;13.50;11.50;;;;;;;;5026626;28;28637;-80
2024/01/09 02:49:16;;;;;;;;;15.00;12.50;;;;;;;;5030285;28;29947;-78
2024/01/09 02:51:41;;;;;;;;;17.75;14.75;;;;;;;;5028940;28;28743;-78
2024/01/09 02:54:06;;;;;;;;;19.25;16.50;;;;;;;;5030692;28;28758;-77
2024/01/09 02:56:32;;;;;;;;;16.50;16.50;;;;;;;;5030757;28;28880;-77
2024/01/09 02:58:58;;;;;;;;;15.25;15.00;;;;;;;;5029676;28;28725;-76
2024/01/09 03:01:23;;;;;;;;;11.25;11.00;;;;;;;;5025956;28;28536;-78
2024/01/09 03:03:49;;;;;;;;;17.75;12.25;;;;;;;;5021632;28;28418;-79
2024/01/09 03:06:14;;;;;;;;;14.25;11.00;;;;;;;;5029519;28;28536;-78
2024/01/09 03:08:39;;;;;;;;;13.75;11.25;;;;;;;;5025016;28;28646;-75
2024/01/09 03:11:04;;;;;;;;;22.50;17.75;;;;;;;;5025252;28;28678;-77
2024/01/09 03:13:29;;;;;;;;;17.75;16.00;;;;;;;;5028105;28;28786;-79
2024/01/09 03:15:55;;;;;;;;;23.75;17.00;;;;;;;;5028166;28;29161;-79
2024/01/09 03:18:20;;;;;;;;;14.50;14.50;;;;;;;;5027871;28;28739;-79
2024/01/09 03:20:45;;;;;;;;;19.00;14.25;;;;;;;;5028422;28;28539;-75
2024/01/09 03:23:10;;;;;;;;;17.25;14.00;;;;;;;;5030291;28;28910;-79
2024/01/09 03:25:36;;;;;;;;;18.00;15.00;;;;;;;;5028578;28;29325;-78
2024/01/09 03:28:01;;;;;;;;;16.00;13.25;;;;;;;;5028735;28;30045;-76
2024/01/09 03:30:29;;;;;;;;;11.75;10.50;;;;;;;;5024968;28;28557;-78
2024/01/09 03:32:54;;;;;;;;;16.00;11.00;;;;;;;;5021759;28;28853;-78
2024/01/09 03:35:20;;;;;;;;;20.50;15.00;;;;;;;;5027991;28;30208;-78
2024/01/09 03:37:45;;;;;;;;;6.00;6.00;;;;;;;;5029332;28;29189;-79
2024/01/09 03:40:11;;;;;;;;;16.50;14.75;;;;;;;;5030019;28;28723;-78
2024/01/09 03:42:36;;;;;;;;;12.50;11.00;;;;;;;;5047926;28;28585;-78
2024/01/09 03:45:01;;;;;;;;;15.75;15.75;;;;;;;;5024248;28;28647;-78
2024/01/09 03:47:27;;;;;;;;;10.25;9.75;;;;;;;;5016507;28;28464;-78
2024/01/09 03:49:52;;;;;;;;;19.00;13.25;;;;;;;;5025772;28;28541;-78
2024/01/09 03:52:18;;;;;;;;;19.75;12.00;;;;;;;;5030403;28;28571;-77
2024/01/09 03:54:43;;;;;;;;;17.50;15.50;;;;;;;;5024621;28;28626;-77
2024/01/09 03:57:10;;;;;;;;;19.00;12.50;;;;;;;;5025201;28;28718;-78
2024/01/09 03:59:35;;;;;;;;;16.00;15.00;;;;;;;;5026811;28;28691;-77
2024/01/09 04:02:00;;;;;;;;;22.25;19.25;;;;;;;;5027427;28;28528;-78
2024/01/09 04:04:26;;;;;;;;;17.50;12.50;;;;;;;;5028493;28;28607;-79
2024/01/09 04:06:51;;;;;;;;;19.50;16.50;;;;;;;;5029599;28;28894;-78
2024/01/09 04:09:16;;;;;;;;;17.25;11.25;;;;;;;;5035889;28;28795;-78
2024/01/09 04:11:45;;;;;;;;;13.25;12.00;;;;;;;;5035867;28;28886;-79
2024/01/09 04:14:10;;;;;;;;;15.75;13.50;;;;;;;;5029689;28;29804;-76
2024/01/09 04:16:35;;;;;;;;;21.00;15.75;;;;;;;;5028874;28;30743;-76
2024/01/09 04:19:01;;;;;;;;;16.00;13.00;;;;;;;;5031061;28;28524;-78
2024/01/09 04:21:26;;;;;;;;;22.00;17.50;;;;;;;;5025068;28;28321;-79
2024/01/09 04:23:51;;;;;;;;;15.50;15.25;;;;;;;;5017828;28;28495;-79
2024/01/09 04:26:16;;;;;;;;;16.00;16.00;;;;;;;;5031706;28;28569;-78
2024/01/09 04:28:42;;;;;;;;;16.50;13.00;;;;;;;;5027628;28;28972;-78
2024/01/09 04:31:08;;;;;;;;;20.00;19.50;;;;;;;;5023151;28;28500;-77
2024/01/09 04:33:33;;;;;;;;;14.25;12.25;;;;;;;;5028274;28;28908;-76
2024/01/09 04:35:58;;;;;;;;;14.00;14.00;;;;;;;;5027679;28;29236;-75
2024/01/09 04:38:23;;;;;;;;;19.00;15.00;;;;;;;;5020711;28;28983;-78
2024/01/09 04:40:49;;;;;;;;;20.75;16.25;;;;;;;;5026430;28;28572;-77
2024/01/09 04:43:14;;;;;;;;;15.25;15.25;;;;;;;;5027845;28;28790;-77
2024/01/09 04:45:39;;;;;;;;;16.00;14.00;;;;;;;;5025377;28;28650;-77
2024/01/09 04:48:05;;;;;;;;;17.25;14.25;;;;;;;;5021952;28;28781;-77
2024/01/09 04:50:30;;;;;;;;;20.00;17.00;;;;;;;;5025076;28;28559;-78
2024/01/09 04:52:56;;;;;;;;;21.75;16.00;;;;;;;;5026978;28;29367;-78
2024/01/09 04:55:21;;;;;;;;;18.75;16.50;;;;;;;;5027721;28;29138;-79
2024/01/09 04:57:47;;;;;;;;;19.75;18.25;;;;;;;;5028255;28;28564;-79
2024/01/09 05:00:12;;;;;;;;;22.25;16.25;;;;;;;;5028121;28;29087;-78
2024/01/09 05:02:38;;;;;;;;;22.00;17.00;;;;;;;;5022991;28;28936;-78
2024/01/09 05:05:03;;;;;;;;;18.50;14.75;;;;;;;;5020360;28;28922;-81
2024/01/09 05:07:29;;;;;;;;;20.75;17.50;;;;;;;;5027837;28;28477;-79
2024/01/09 05:09:54;;;;;;;;;8.50;8.00;;;;;;;;5027503;28;28738;-80
2024/01/09 05:12:20;;;;;;;;;22.50;20.75;;;;;;;;5022903;28;29448;-80
2024/01/09 05:14:45;;;;;;;;;17.25;16.00;;;;;;;;5020454;28;28532;-79
2024/01/09 05:17:11;;;;;;;;;17.50;13.75;;;;;;;;5025212;28;28363;-79
2024/01/09 05:19:36;;;;;;;;;23.00;20.50;;;;;;;;5027090;28;28878;-79
2024/01/09 05:22:01;;;;;;;;;20.50;17.00;;;;;;;;5016970;28;28453;-80
2024/01/09 05:24:27;;;;;;;;;19.25;17.25;;;;;;;;5021643;28;28708;-80
2024/01/09 05:26:52;;;;;;;;;14.75;12.75;;;;;;;;5028448;28;28603;-80
2024/01/09 05:29:17;;;;;;;;;20.00;18.00;;;;;;;;5027605;28;28423;-79
2024/01/09 05:31:43;;;;;;;;;22.00;18.50;;;;;;;;5021065;28;28394;-76
2024/01/09 05:34:09;;;;;;;;;27.25;21.50;;;;;;;;5019469;28;28751;-77
2024/01/09 05:36:34;;;;;;;;;18.25;12.00;;;;;;;;5014472;28;29169;-78
2024/01/09 05:38:59;;;;;;;;;20.25;16.00;;;;;;;;5027495;28;28557;-79
2024/01/09 05:41:24;;;;;;;;;24.00;19.25;;;;;;;;5025756;28;29067;-78
2024/01/09 05:43:50;;;;;;;;;17.50;15.00;;;;;;;;5026716;28;29634;-77
2024/01/09 05:46:15;;;;;;;;;23.50;17.00;;;;;;;;5021505;28;29009;-79
2024/01/09 05:48:40;;;;;;;;;18.00;14.75;;;;;;;;5027419;28;28930;-78
2024/01/09 05:51:06;;;;;;;;;20.50;16.50;;;;;;;;5017939;28;28893;-79
2024/01/09 05:53:31;;;;;;;;;25.25;15.25;;;;;;;;5021260;28;29891;-80
2024/01/09 05:55:56;;;;;;;;;19.25;14.50;;;;;;;;5028947;28;28468;-78
2024/01/09 05:58:21;;;;;;;;;24.50;18.25;;;;;;;;5018387;28;28514;-71
2024/01/09 06:00:47;;;;;;;;;21.25;17.25;;;;;;;;5016438;28;29355;-70
2024/01/09 06:03:12;;;;;;;;;27.75;23.75;;;;;;;;5023163;28;30244;-71
2024/01/09 06:05:37;;;;;;;;;17.00;14.50;;;;;;;;5016574;28;29156;-74
2024/01/09 06:08:03;;;;;;;;;18.25;17.00;;;;;;;;5025314;28;28651;-72
2024/01/09 06:10:28;;;;;;;;;19.00;15.00;;;;;;;;5021667;28;28505;-71
2024/01/09 06:12:53;;;;;;;;;25.25;21.50;;;;;;;;5021023;28;29365;-71
2024/01/09 06:15:19;;;;;;;;;28.50;24.75;;;;;;;;5015473;28;28595;-71
2024/01/09 06:17:44;;;;;;;;;23.50;19.75;;;;;;;;5017559;28;28726;-72
2024/01/09 06:20:09;;;;;;;;;28.75;24.75;;;;;;;;5015189;28;28816;-71
2024/01/09 06:22:35;;;;;;;;;23.25;20.75;;;;;;;;5025041;28;28718;-72
2024/01/09 06:25:00;;;;;;;;;27.25;22.00;;;;;;;;5023818;28;28570;-71
2024/01/09 06:27:25;;;;;;;;;23.50;22.75;;;;;;;;5021773;28;28447;-70
2024/01/09 06:29:50;;;;;;;;;22.00;17.50;;;;;;;;5025574;28;28347;-75
2024/01/09 06:32:16;;;;;;;;;31.25;24.00;;;;;;;;5023729;28;30254;-70
2024/01/09 06:34:41;;;;;;;;;28.00;23.50;;;;;;;;5020462;28;28556;-79
2024/01/09 06:37:06;;;;;;;;;28.25;24.00;;;;;;;;5029035;28;28860;-77
2024/01/09 06:39:31;;;;;;;;;35.50;24.00;;;;;;;;5024287;28;29385;-78
2024/01/09 06:41:56;;;;;;;;;22.25;22.25;;;;;;;;5024701;28;28768;-78
2024/01/09 06:44:21;;;;;;;;;22.25;19.25;;;;;;;;5022543;28;28489;-78
2024/01/09 06:46:47;;;;;;;;;27.75;21.25;;;;;;;;5029053;28;28611;-78
2024/01/09 06:49:12;;;;;;;;;26.75;21.50;;;;;;;;5021059;28;29470;-77
2024/01/09 06:51:37;;;;;;;;;30.25;21.75;;;;;;;;5029762;28;28877;-78
2024/01/09 06:54:03;;;;;;;;;28.25;24.00;;;;;;;;5032572;28;28618;-80
2024/01/09 06:56:28;;;;;;;;;30.00;23.67;;;;;;;;5039497;28;28461;-83
2024/01/09 06:58:53;;;;;;;;;31.50;22.75;;;;;;;;5036406;28;28499;-80
2024/01/09 07:01:19;;;;;;;;;25.00;20.50;;;;;;;;5039575;28;28237;-81
2024/01/09 07:03:44;;;;;;;;;28.50;21.75;;;;;;;;5046068;28;27938;-81
2024/01/09 07:06:09;;;;;;;;;28.75;25.75;;;;;;;;5046383;28;28176;-81
2024/01/09 07:08:35;;;;;;;;;23.75;17.50;;;;;;;;5034723;28;27998;-81
2024/01/09 07:11:00;;;;;;;;;33.75;23.50;;;;;;;;5034944;28;28418;-82
2024/01/09 07:13:26;;;;;;;;;31.00;23.75;;;;;;;;5036783;28;27906;-85
2024/01/09 07:15:51;;;;;;;;;27.75;21.25;;;;;;;;5033082;28;28966;-80
2024/01/09 07:18:16;;;;;;;;;28.25;22.00;;;;;;;;5026308;28;28433;-81
2024/01/09 07:20:43;;;;;;;;;27.50;21.50;;;;;;;;5027666;28;28530;-80
2024/01/09 07:23:08;;;;;;;;;24.00;18.75;;;;;;;;5025268;28;28488;-81
2024/01/09 07:25:33;;;;;;;;;33.75;26.25;;;;;;;;5029849;28;28529;-82
2024/01/09 07:27:58;;;;;;;;;27.75;22.75;;;;;;;;5028666;28;28332;-81
2024/01/09 07:30:24;;;;;;;;;34.25;26.50;;;;;;;;5024221;28;29203;-82
2024/01/09 07:32:49;;;;;;;;;27.25;23.00;;;;;;;;5028238;28;28969;-81
2024/01/09 07:35:14;;;;;;;;;34.75;21.75;;;;;;;;5032727;28;28667;-79
2024/01/09 07:37:39;;;;;;;;;31.00;23.00;;;;;;;;5050901;28;28493;-78
2024/01/09 07:40:05;;;;;;;;;30.75;27.75;;;;;;;;5041095;28;28465;-78
2024/01/09 07:42:31;;;;;;;;;35.75;27.75;;;;;;;;5034884;28;28825;-81
2024/01/09 07:44:56;;;;;;;;;20.75;18.25;;;;;;;;5032593;28;28529;-78
2024/01/09 07:47:22;;;;;;;;;33.50;27.75;;;;;;;;5026034;28;28477;-78
2024/01/09 07:49:47;;;;;;;;;33.25;25.25;;;;;;;;5029206;28;28423;-79
2024/01/09 07:52:12;;;;;;;;;29.50;28.00;;;;;;;;5032344;28;28512;-81
2024/01/09 07:54:38;;;;;;;;;33.25;24.75;;;;;;;;5036086;28;28421;-79
2024/01/09 07:57:03;;;;;;;;;34.50;27.25;;;;;;;;5030586;28;28553;-80
2024/01/09 07:59:28;;;;;;;;;29.00;19.50;;;;;;;;5021610;28;30102;-78
2024/01/09 08:01:56;;;;;;;;;23.00;20.50;;;;;;;;5030853;28;28542;-80
2024/01/09 08:04:22;;;;;;;;;29.75;28.00;;;;;;;;5020680;28;28604;-79
2024/01/09 08:06:50;;;;;;;;;37.50;30.50;;;;;;;;5030774;28;29198;-78
2024/01/09 08:09:16;;;;;;;;;36.75;28.00;;;;;;;;5025399;28;28399;-79
2024/01/09 08:11:41;;;;;;;;;43.50;29.00;;;;;;;;5031475;28;28735;-79
2024/01/09 08:14:06;;;;;;;;;30.50;24.50;;;;;;;;5021386;28;27991;-79
2024/01/09 08:16:31;;;;;;;;;34.50;26.25;;;;;;;;5027139;28;28707;-80
2024/01/09 08:18:57;;;;;;;;;31.00;24.75;;;;;;;;5029538;28;29142;-79
2024/01/09 08:21:22;;;;;;;;;31.25;25.75;;;;;;;;5026884;28;28969;-78
2024/01/09 08:23:47;;;;;;;;;28.00;19.75;;;;;;;;5029206;28;28915;-79
2024/01/09 08:26:13;;;;;;;;;31.25;27.25;;;;;;;;5030435;28;28367;-79
2024/01/09 08:28:38;;;;;;;;;26.00;22.50;;;;;;;;5026548;28;29326;-78
2024/01/09 08:31:03;;;;;;;;;30.25;26.25;;;;;;;;5028790;28;28648;-79
2024/01/09 08:33:31;;;;;;;;;34.75;26.00;;;;;;;;5028436;28;28652;-79
2024/01/09 08:35:57;;;;;;;;;31.00;26.00;;;;;;;;5028285;28;29270;-78
2024/01/09 08:38:22;;;;;;;;;36.75;26.75;;;;;;;;5027762;28;29535;-79
2024/01/09 08:40:52;;;;;;;;;22.00;16.75;;;;;;;;5029021;28;28904;-80
2024/01/09 08:43:17;;;;;;;;;19.50;17.50;;;;;;;;5025283;28;28402;-79
2024/01/09 08:45:43;;;;;;;;;35.50;29.00;;;;;;;;5029258;28;28986;-79
2024/01/09 08:48:08;;;;;;;;;13.50;13.50;;;;;;;;5023928;28;28571;-79
2024/01/09 08:50:34;;;;;;;;;33.50;28.25;;;;;;;;5030147;28;28422;-79
2024/01/09 08:52:59;;;;;;;;;26.50;21.75;;;;;;;;5030484;28;28406;-78
2024/01/09 08:55:24;;;;;;;;;40.25;32.75;;;;;;;;5027199;28;29293;-78
2024/01/09 08:57:49;;;;;;;;;23.75;19.00;;;;;;;;5028619;28;28432;-79
2024/01/09 09:00:15;;;;;;;;;31.25;28.50;;;;;;;;5026977;28;28809;-80
2024/01/09 09:02:40;;;;;;;;;29.50;24.00;;;;;;;;5028535;28;28663;-80
2024/01/09 09:05:06;;;;;;;;;42.00;29.75;;;;;;;;5028665;28;29300;-79
2024/01/09 09:07:31;;;;;;;;;32.00;27.50;;;;;;;;5029255;28;29646;-79
2024/01/09 09:09:57;;;;;;;;;30.25;26.25;;;;;;;;5043585;28;28418;-79
2024/01/09 09:12:22;;;;;;;;;25.00;18.75;;;;;;;;5029143;28;28639;-79
2024/01/09 09:14:48;;;;;;;;;45.50;29.25;;;;;;;;5028521;28;28768;-79
2024/01/09 09:17:14;;;;;;;;;28.25;22.75;;;;;;;;5025868;28;29801;-81
2024/01/09 09:19:39;;;;;;;;;33.50;26.75;;;;;;;;5027693;28;28529;-80
2024/01/09 09:22:04;;;;;;;;;29.00;26.50;;;;;;;;5027418;28;28535;-79
2024/01/09 09:24:30;;;;;;;;;33.00;22.25;;;;;;;;5026385;28;28498;-79
2024/01/09 09:26:55;;;;;;;;;24.75;20.75;;;;;;;;5030539;28;28576;-79
2024/01/09 09:29:20;;;;;;;;;33.50;24.00;;;;;;;;5028948;28;28554;-79
2024/01/09 09:31:46;;;;;;;;;41.75;33.50;;;;;;;;5027579;28;27906;-78
2024/01/09 09:34:11;;;;;;;;;37.50;30.75;;;;;;;;5025474;28;28982;-79
2024/01/09 09:36:36;;;;;;;;;31.50;28.75;;;;;;;;5016485;28;28533;-78
2024/01/09 09:39:02;;;;;;;;;20.50;15.50;;;;;;;;5029041;28;28628;-79
2024/01/09 09:41:29;;;;;;;;;37.25;29.25;;;;;;;;5026910;28;28903;-80
2024/01/09 09:43:55;;;;;;;;;31.00;27.00;;;;;;;;5025214;28;28475;-79
2024/01/09 09:46:25;;;;;;;;;34.00;28.75;;;;;;;;5027411;28;28554;-79
2024/01/09 09:48:52;;;;;;;;;27.00;25.25;;;;;;;;5028136;28;28407;-79
2024/01/09 09:51:18;;;;;;;;;39.75;31.75;;;;;;;;5028342;28;28532;-78
2024/01/09 09:53:43;;;;;;;;;22.75;19.50;;;;;;;;5028971;28;28647;-81
2024/01/09 09:56:10;;;;;;;;;33.75;30.25;;;;;;;;5027772;28;28604;-78
2024/01/09 09:58:35;;;;;;;;;36.50;27.75;;;;;;;;5027491;28;28896;-79
2024/01/09 10:01:01;;;;;;;;;39.00;30.25;;;;;;;;5020408;28;28569;-79
2024/01/09 10:03:32;;;;;;;;;31.25;28.25;;;;;;;;5024374;28;28478;-79
2024/01/09 10:05:59;;;;;;;;;28.75;22.50;;;;;;;;5028586;28;28982;-79
2024/01/09 10:08:24;;;;;;;;;40.50;32.00;;;;;;;;5025822;28;28543;-79
2024/01/09 10:10:49;;;;;;;;;33.50;27.00;;;;;;;;5026386;28;28749;-79
2024/01/09 10:13:15;;;;;;;;;34.25;26.50;;;;;;;;5021497;28;28379;-80
2024/01/09 10:16:10;;;;;;;;;31.25;29.00;;;;;;;;5026207;28;31501;-79
2024/01/09 10:18:36;;;;;;;;;33.00;28.75;;;;;;;;5006027;28;28593;-79
2024/01/09 10:21:02;;;;;;;;;33.25;27.25;;;;;;;;5026672;28;29011;-80
2024/01/09 10:23:28;;;;;;;;;27.25;27.25;;;;;;;;5026575;28;28656;-79
2024/01/09 10:25:53;;;;;;;;;36.25;28.50;;;;;;;;5024037;28;28529;-78
2024/01/09 10:28:19;;;;;;;;;36.75;28.25;;;;;;;;5019800;28;29803;-80
2024/01/09 10:30:44;;;;;;;;;31.50;28.75;;;;;;;;5029190;28;28567;-79
2024/01/09 10:33:11;;;;;;;;;30.00;26.00;;;;;;;;5027018;28;28457;-79
2024/01/09 10:35:37;;;;;;;;;27.00;25.50;;;;;;;;5020680;28;29596;-80
2024/01/09 10:38:02;;;;;;;;;32.50;26.50;;;;;;;;5028528;28;28683;-78
2024/01/09 10:40:27;;;;;;;;;34.00;28.50;;;;;;;;5027063;28;28492;-79
2024/01/09 10:42:53;;;;;;;;;35.00;30.00;;;;;;;;5028115;28;28510;-80
2024/01/09 10:45:21;;;;;;;;;32.75;29.50;;;;;;;;5031724;28;28357;-79
2024/01/09 10:47:47;;;;;;;;;36.75;25.25;;;;;;;;5027020;28;28580;-79
2024/01/09 10:50:14;;;;;;;;;23.00;20.75;;;;;;;;5024829;28;28603;-80
2024/01/09 10:52:40;;;;;;;;;35.50;28.75;;;;;;;;5028102;28;28505;-79
2024/01/09 10:55:07;;;;;;;;;27.00;24.00;;;;;;;;5027907;28;28522;-79
2024/01/09 10:57:34;;;;;;;;;27.00;20.75;;;;;;;;5027703;28;28497;-79
2024/01/09 11:00:00;;;;;;;;;21.75;19.75;;;;;;;;5028144;28;28845;-79
2024/01/09 11:02:26;;;;;;;;;36.75;26.50;;;;;;;;5028643;28;28458;-79
2024/01/09 11:04:52;;;;;;;;;28.50;23.00;;;;;;;;5027616;28;28587;-78
2024/01/09 11:07:18;;;;;;;;;46.00;35.50;;;;;;;;5024777;28;28845;-79
2024/01/09 11:09:45;;;;;;;;;40.75;33.25;;;;;;;;5029501;28;28650;-80
2024/01/09 11:12:13;;;;;;;;;28.00;26.75;;;;;;;;5032416;28;28287;-81
2024/01/09 11:14:39;;;;;;;;;30.00;26.75;;;;;;;;5032599;28;28255;-80
2024/01/09 11:17:06;;;;;;;;;33.00;28.25;;;;;;;;5031905;28;28979;-80
2024/01/09 11:19:31;;;;;;;;;23.75;20.50;;;;;;;;5018707;28;28581;-80
2024/01/09 11:21:57;;;;;;;;;37.50;30.00;;;;;;;;5021127;28;28512;-79
2024/01/09 11:24:25;;;;;;;;;30.25;29.50;;;;;;;;5027256;28;29917;-79
2024/01/09 11:27:08;;;;;;;;;32.50;27.25;;;;;;;;5018730;27;27886;-79
2024/01/09 11:30:00;;;;;;;;;33.75;26.75;;;;;;;;5037773;28;29076;-80
2024/01/09 11:32:28;;;;;;;;;27.25;24.75;;;;;;;;5030027;28;28564;-78
2024/01/09 11:35:12;;;;;;;;;26.50;25.75;;;;;;;;5035460;28;29784;-79
2024/01/09 11:37:39;;;;;;;;;32.50;24.25;;;;;;;;5029660;28;28759;-79
2024/01/09 11:40:05;;;;;;;;;26.75;23.00;;;;;;;;5027332;28;29156;-79
2024/01/09 11:42:30;;;;;;;;;36.75;33.00;;;;;;;;5024832;28;29046;-78
2024/01/09 11:44:56;;;;;;;;;32.25;26.50;;;;;;;;5023251;28;29440;-79
2024/01/09 11:47:21;;;;;;;;;40.25;31.50;;;;;;;;5018544;28;29952;-77
2024/01/09 11:49:46;;;;;;;;;35.50;30.75;;;;;;;;5027041;28;29765;-79
2024/01/09 11:52:12;;;;;;;;;31.25;28.75;;;;;;;;5038283;28;28561;-78
2024/01/09 11:54:41;;;;;;;;;39.50;29.75;;;;;;;;5027799;28;29518;-79
2024/01/09 11:57:07;;;;;;;;;26.25;26.00;;;;;;;;5021860;28;28664;-79
2024/01/09 11:59:33;;;;;;;;;28.25;21.75;;;;;;;;5034033;28;28757;-79
2024/01/09 12:01:59;;;;;;;;;35.75;30.75;;;;;;;;5031574;28;28543;-79
2024/01/09 12:04:24;;;;;;;;;36.25;31.00;;;;;;;;5025139;28;29762;-79
2024/01/09 12:06:50;;;;;;;;;33.50;28.00;;;;;;;;5027352;28;28897;-79
2024/01/09 12:09:15;;;;;;;;;32.25;30.75;;;;;;;;5026344;28;28818;-78
2024/01/09 12:11:41;;;;;;;;;31.25;30.25;;;;;;;;5020542;28;28886;-78
2024/01/09 12:14:07;;;;;;;;;33.50;29.00;;;;;;;;5025574;28;28736;-78
2024/01/09 12:16:32;;;;;;;;;32.75;27.25;;;;;;;;5029080;28;28967;-78
2024/01/09 12:19:02;;;;;;;;;40.50;31.50;;;;;;;;5021355;28;28368;-77
2024/01/09 12:21:34;;;;;;;;;40.50;28.00;;;;;;;;5019804;28;30030;-79
2024/01/09 12:24:01;;;;;;;;;37.00;30.50;;;;;;;;5027728;28;30806;-81
2024/01/09 12:26:27;;;;;;;;;33.75;30.75;;;;;;;;5022717;28;29104;-80
2024/01/09 12:28:53;;;;;;;;;35.50;29.25;;;;;;;;5027187;28;28944;-81
2024/01/09 12:31:18;;;;;;;;;21.75;21.75;;;;;;;;5028365;28;28595;-80
2024/01/09 12:33:44;;;;;;;;;36.00;26.50;;;;;;;;5028480;28;29240;-80
2024/01/09 12:36:10;;;;;;;;;34.75;22.75;;;;;;;;5029508;28;28561;-80
2024/01/09 12:38:35;;;;;;;;;33.00;27.75;;;;;;;;5020373;28;28588;-80
2024/01/09 12:41:01;;;;;;;;;33.25;31.25;;;;;;;;5012408;28;28869;-80
2024/01/09 12:43:29;;;;;;;;;30.00;28.50;;;;;;;;5027662;28;29019;-80
2024/01/09 12:45:56;;;;;;;;;36.50;30.75;;;;;;;;5035384;28;28513;-80
2024/01/09 12:48:21;;;;;;;;;50.75;37.00;;;;;;;;5027794;28;28945;-79
2024/01/09 12:50:59;;;;;;;;;38.50;27.75;;;;;;;;5015786;28;28828;-80
2024/01/09 12:53:26;;;;;;;;;42.25;30.75;;;;;;;;5012713;28;28643;-80
2024/01/09 12:56:05;;;;;;;;;40.75;28.25;;;;;;;;5026630;28;28862;-80
2024/01/09 12:58:31;;;;;;;;;35.25;30.75;;;;;;;;5022209;28;28685;-80
2024/01/09 13:00:56;;;;;;;;;39.00;29.75;;;;;;;;5023216;28;28870;-79
2024/01/09 13:03:22;;;;;;;;;38.00;30.50;;;;;;;;5021874;28;30072;-79
2024/01/09 13:05:47;;;;;;;;;36.75;30.75;;;;;;;;5023188;28;28847;-80
2024/01/09 13:08:12;;;;;;;;;14.50;12.50;;;;;;;;5028426;28;28852;-80
2024/01/09 13:10:37;;;;;;;;;30.50;24.25;;;;;;;;5025360;28;29374;-80
2024/01/09 13:13:03;;;;;;;;;26.75;26.75;;;;;;;;5017375;28;28915;-79
2024/01/09 13:15:28;;;;;;;;;38.25;32.25;;;;;;;;5029235;28;28935;-80
2024/01/09 13:17:53;;;;;;;;;30.00;24.75;;;;;;;;5027088;28;28829;-79
2024/01/09 13:20:18;;;;;;;;;33.00;25.50;;;;;;;;5024278;28;28693;-80
2024/01/09 13:22:44;;;;;;;;;24.25;22.50;;;;;;;;5028808;28;28493;-80
2024/01/09 13:25:09;;;;;;;;;34.00;26.00;;;;;;;;5028822;28;28498;-80
2024/01/09 13:27:34;;;;;;;;;27.75;24.25;;;;;;;;5037496;28;29041;-80
2024/01/09 13:29:59;;;;;;;;;34.25;28.00;;;;;;;;5028328;28;28804;-80
2024/01/09 13:32:25;;;;;;;;;41.75;28.50;;;;;;;;5028530;28;28976;-81
2024/01/09 13:34:51;;;;;;;;;39.50;27.75;;;;;;;;5025645;28;28525;-79
2024/01/09 13:37:16;;;;;;;;;32.50;27.50;;;;;;;;5017315;28;28486;-79
2024/01/09 13:39:41;;;;;;;;;29.25;24.50;;;;;;;;5027957;28;28512;-79
2024/01/09 13:42:08;;;;;;;;;29.25;25.25;;;;;;;;5028709;28;28478;-79
2024/01/09 13:44:33;;;;;;;;;36.25;31.00;;;;;;;;5029653;28;28759;-79
2024/01/09 13:46:58;;;;;;;;;33.75;26.25;;;;;;;;5028219;28;28431;-80
2024/01/09 13:49:24;;;;;;;;;34.75;29.25;;;;;;;;5027180;28;28649;-79
2024/01/09 13:51:51;;;;;;;;;37.00;27.50;;;;;;;;5022603;28;29192;-79
2024/01/09 13:54:16;;;;;;;;;32.25;28.50;;;;;;;;5027735;28;28867;-80
2024/01/09 13:56:41;;;;;;;;;25.75;25.75;;;;;;;;5022633;28;28864;-79
2024/01/09 13:59:07;;;;;;;;;37.50;32.75;;;;;;;;5028124;28;28864;-78
2024/01/09 14:01:32;;;;;;;;;37.50;29.00;;;;;;;;5028197;28;28916;-80
2024/01/09 14:03:57;;;;;;;;;35.00;29.75;;;;;;;;5028084;28;28653;-80
2024/01/09 14:06:25;;;;;;;;;37.25;32.00;;;;;;;;5034754;28;28551;-79
2024/01/09 14:08:50;;;;;;;;;36.25;31.00;;;;;;;;5022670;28;28427;-79